createdAt,value
2023-04-30T00:00:00.162Z, 0
2023-04-30T00:02:00.129Z, 0
2023-04-30T00:04:00.253Z, 0
2023-04-30T00:06:00.175Z, 0
2023-04-30T00:08:00.121Z, 0
2023-04-30T00:10:00.167Z, 0
2023-04-30T00:12:00.120Z, 0
2023-04-30T00:14:00.075Z, 0
2023-04-30T00:16:00.134Z, 0
2023-04-30T00:18:00.108Z, 0
2023-04-30T00:20:00.057Z, 0
2023-04-30T00:22:00.069Z, 0
2023-04-30T00:24:00.092Z, 0
2023-04-30T00:26:00.057Z, 0
2023-04-30T00:28:00.059Z, 0
2023-04-30T00:30:00.100Z, 0
2023-04-30T00:32:00.118Z, 0
2023-04-30T00:34:00.058Z, 0
2023-04-30T00:36:00.060Z, 0
2023-04-30T00:38:00.061Z, 0
2023-04-30T00:40:00.083Z, 0
2023-04-30T00:42:00.065Z, 0
2023-04-30T00:44:00.101Z, 0
2023-04-30T00:46:00.175Z, 0
2023-04-30T00:48:00.219Z, 0
2023-04-30T00:50:00.199Z, 0
2023-04-30T00:52:00.110Z, 0
2023-04-30T00:54:00.121Z, 0
2023-04-30T00:56:00.144Z, 0
2023-04-30T00:58:00.141Z, 0
2023-04-30T01:00:00.143Z, 0
2023-04-30T01:02:00.118Z, 0
2023-04-30T01:04:00.091Z, 0
2023-04-30T01:06:00.177Z, 0
2023-04-30T01:08:00.099Z, 0
2023-04-30T01:10:00.145Z, 0
2023-04-30T01:12:00.105Z, 0
2023-04-30T01:14:00.075Z, 0
2023-04-30T01:16:00.109Z, 0
2023-04-30T01:18:00.135Z, 0
2023-04-30T01:20:00.066Z, 0
2023-04-30T01:22:00.090Z, 0
2023-04-30T01:24:00.055Z, 0
2023-04-30T01:26:00.051Z, 0
2023-04-30T01:28:00.124Z, 0
2023-04-30T01:30:00.098Z, 0
2023-04-30T01:32:00.094Z, 0
2023-04-30T01:34:00.052Z, 0
2023-04-30T01:36:00.069Z, 0
2023-04-30T01:38:00.135Z, 0
2023-04-30T01:40:00.073Z, 0
2023-04-30T01:42:00.072Z, 0
2023-04-30T01:44:00.105Z, 0
2023-04-30T01:46:00.141Z, 0
2023-04-30T01:48:00.209Z, 0
2023-04-30T01:50:00.112Z, 0
2023-04-30T01:52:00.145Z, 0
2023-04-30T01:54:00.126Z, 0
2023-04-30T01:56:00.128Z, 0
2023-04-30T01:58:00.135Z, 0
2023-04-30T02:00:00.169Z, 0
2023-04-30T02:02:00.389Z, 0
2023-04-30T02:04:00.373Z, 0
2023-04-30T02:06:00.161Z, 0
2023-04-30T02:08:00.123Z, 0
2023-04-30T02:10:00.170Z, 0
2023-04-30T02:12:00.100Z, 0
2023-04-30T02:14:00.093Z, 0
2023-04-30T02:16:00.181Z, 0
2023-04-30T02:18:00.285Z, 0
2023-04-30T02:20:00.027Z, 0
2023-04-30T02:22:00.065Z, 0
2023-04-30T02:24:00.069Z, 0
2023-04-30T02:26:00.055Z, 0
2023-04-30T02:28:00.056Z, 0
2023-04-30T02:30:00.045Z, 0
2023-04-30T02:32:00.213Z, 0
2023-04-30T02:34:00.049Z, 0
2023-04-30T02:36:00.065Z, 0
2023-04-30T02:38:00.065Z, 0
2023-04-30T02:40:00.055Z, 0
2023-04-30T02:42:00.134Z, 0
2023-04-30T02:44:00.093Z, 0
2023-04-30T02:46:00.140Z, 0
2023-04-30T02:48:00.136Z, 0
2023-04-30T02:50:00.132Z, 0
2023-04-30T02:52:00.121Z, 0
2023-04-30T02:54:00.132Z, 0
2023-04-30T02:56:00.138Z, 0
2023-04-30T02:58:00.145Z, 0
2023-04-30T03:00:00.137Z, 0
2023-04-30T03:02:00.097Z, 0
2023-04-30T03:04:00.114Z, 0
2023-04-30T03:06:00.140Z, 0
2023-04-30T03:08:00.078Z, 0
2023-04-30T03:10:00.126Z, 0
2023-04-30T03:12:00.102Z, 0
2023-04-30T03:14:00.111Z, 0
2023-04-30T03:16:00.171Z, 0
2023-04-30T03:18:00.124Z, 0
2023-04-30T03:20:00.088Z, 0
2023-04-30T03:22:00.065Z, 0
2023-04-30T03:24:00.076Z, 0
2023-04-30T03:26:00.064Z, 0
2023-04-30T03:28:00.065Z, 0
2023-04-30T03:30:00.119Z, 0
2023-04-30T03:32:00.148Z, 1
2023-04-30T03:34:00.334Z, 3
2023-04-30T03:36:00.062Z, 5
2023-04-30T03:38:00.092Z, 6
2023-04-30T03:40:00.092Z, 10
2023-04-30T03:42:00.075Z, 14
2023-04-30T03:44:00.120Z, 20
2023-04-30T03:46:00.195Z, 27
2023-04-30T03:48:00.161Z, 37
2023-04-30T03:50:00.132Z, 50
2023-04-30T03:52:00.127Z, 66
2023-04-30T03:54:00.130Z, 87
2023-04-30T03:56:00.118Z, 111
2023-04-30T03:58:00.131Z, 141
2023-04-30T04:00:00.172Z, 177
2023-04-30T04:02:00.201Z, 218
2023-04-30T04:04:00.148Z, 266
2023-04-30T04:06:00.170Z, 320
2023-04-30T04:08:00.130Z, 380
2023-04-30T04:10:00.162Z, 447
2023-04-30T04:12:00.111Z, 522
2023-04-30T04:14:00.121Z, 604
2023-04-30T04:16:00.163Z, 693
2023-04-30T04:18:00.184Z, 786
2023-04-30T04:20:00.076Z, 887
2023-04-30T04:22:00.068Z, 996
2023-04-30T04:24:00.062Z, 1110
2023-04-30T04:26:00.028Z, 1228
2023-04-30T04:28:00.027Z, 1345
2023-04-30T04:30:00.057Z, 1468
2023-04-30T04:32:00.173Z, 1600
2023-04-30T04:34:00.064Z, 1733
2023-04-30T04:36:00.108Z, 1852
2023-04-30T04:38:00.060Z, 1986
2023-04-30T04:40:00.067Z, 2146
2023-04-30T04:42:00.135Z, 2633
2023-04-30T04:44:00.100Z, 2900
2023-04-30T04:46:00.154Z, 3191
2023-04-30T04:48:00.158Z, 3495
2023-04-30T04:50:00.120Z, 3872
2023-04-30T04:52:00.142Z, 4065
2023-04-30T04:54:00.120Z, 4356
2023-04-30T04:56:00.151Z, 4508
2023-04-30T04:58:00.073Z, 4558
2023-04-30T05:00:00.140Z, 4705
2023-04-30T05:02:00.183Z, 5244
2023-04-30T05:04:00.224Z, 5743
2023-04-30T05:06:00.228Z, 6431
2023-04-30T05:08:00.090Z, 7788
2023-04-30T05:10:00.123Z, 6322
2023-04-30T05:12:00.084Z, 6211
2023-04-30T05:14:00.072Z, 6640
2023-04-30T05:16:00.094Z, 8635
2023-04-30T05:18:00.171Z, 7180
2023-04-30T05:20:00.132Z, 8411
2023-04-30T05:22:00.049Z, 10271
2023-04-30T05:24:00.089Z, 11140
2023-04-30T05:26:00.054Z, 12030
2023-04-30T05:28:00.067Z, 11300
2023-04-30T05:30:00.058Z, 9444
2023-04-30T05:32:00.221Z, 12318
2023-04-30T05:34:00.062Z, 13575
2023-04-30T05:36:00.069Z, 11505
2023-04-30T05:38:00.093Z, 13375
2023-04-30T05:40:00.065Z, 15246
2023-04-30T05:42:00.083Z, 15285
2023-04-30T05:44:00.124Z, 15075
2023-04-30T05:46:00.182Z, 15610
2023-04-30T05:48:00.155Z, 16450
2023-04-30T05:50:00.126Z, 18085
2023-04-30T05:52:00.123Z, 17874
2023-04-30T05:54:00.128Z, 18282
2023-04-30T05:56:00.120Z, 19726
2023-04-30T05:58:00.124Z, 27907
2023-04-30T06:00:00.156Z, 22403
2023-04-30T06:02:00.175Z, 26033
2023-04-30T06:04:00.119Z, 34942
2023-04-30T06:06:00.219Z, 38072
2023-04-30T06:08:00.115Z, 23322
2023-04-30T06:10:00.190Z, 17760
2023-04-30T06:12:00.132Z, 15881
2023-04-30T06:14:00.110Z, 15224
2023-04-30T06:16:00.130Z, 14565
2023-04-30T06:18:00.126Z, 14885
2023-04-30T06:20:00.106Z, 15349
2023-04-30T06:22:00.098Z, 15988
2023-04-30T06:24:00.136Z, 21003
2023-04-30T06:26:00.070Z, 20030
2023-04-30T06:28:00.070Z, 20073
2023-04-30T06:30:00.105Z, 17994
2023-04-30T06:32:00.081Z, 17025
2023-04-30T06:34:00.122Z, 16457
2023-04-30T06:36:00.092Z, 16700
2023-04-30T06:38:00.064Z, 18642
2023-04-30T06:40:00.067Z, 20205
2023-04-30T06:42:00.118Z, 34926
2023-04-30T06:44:00.092Z, 23445
2023-04-30T06:46:00.170Z, 24471
2023-04-30T06:48:00.170Z, 25416
2023-04-30T06:50:00.131Z, 25894
2023-04-30T06:52:00.102Z, 27288
2023-04-30T06:54:00.106Z, 33620
2023-04-30T06:56:00.121Z, 41936
2023-04-30T06:58:00.167Z, 41880
2023-04-30T07:00:00.159Z, 39414
2023-04-30T07:02:00.197Z, 42155
2023-04-30T07:04:00.242Z, 42375
2023-04-30T07:06:00.203Z, 43872
2023-04-30T07:08:00.103Z, 48888
2023-04-30T07:10:00.144Z, 46987
2023-04-30T07:12:00.133Z, 37979
2023-04-30T07:14:00.091Z, 36744
2023-04-30T07:16:00.122Z, 45457
2023-04-30T07:18:00.096Z, 45679
2023-04-30T07:20:00.073Z, 39466
2023-04-30T07:22:00.052Z, 27012
2023-04-30T07:24:00.058Z, 24836
2023-04-30T07:26:00.012Z, 24359
2023-04-30T07:28:00.017Z, 42241
2023-04-30T07:30:00.083Z, 30811
2023-04-30T07:32:00.105Z, 38155
2023-04-30T07:34:00.062Z, 43016
2023-04-30T07:36:00.056Z, 43652
2023-04-30T07:38:00.082Z, 36237
2023-04-30T07:40:00.060Z, 44223
2023-04-30T07:42:00.090Z, 41787
2023-04-30T07:44:00.126Z, 35915
2023-04-30T07:46:00.199Z, 29638
2023-04-30T07:48:00.197Z, 24756
2023-04-30T07:50:00.169Z, 26845
2023-04-30T07:52:00.095Z, 41007
2023-04-30T07:54:00.207Z, 42653
2023-04-30T07:56:00.096Z, 43125
2023-04-30T07:58:00.125Z, 44122
2023-04-30T08:00:00.141Z, 44321
2023-04-30T08:02:00.207Z, 45275
2023-04-30T08:04:00.245Z, 46222
2023-04-30T08:06:00.154Z, 46161
2023-04-30T08:08:00.168Z, 47152
2023-04-30T08:10:00.145Z, 47458
2023-04-30T08:12:00.156Z, 47212
2023-04-30T08:14:00.063Z, 47635
2023-04-30T08:16:00.188Z, 47345
2023-04-30T08:18:00.167Z, 47164
2023-04-30T08:20:00.124Z, 48867
2023-04-30T08:22:00.067Z, 49068
2023-04-30T08:24:00.054Z, 50041
2023-04-30T08:26:00.056Z, 49934
2023-04-30T08:28:00.028Z, 50587
2023-04-30T08:30:00.042Z, 51148
2023-04-30T08:32:00.086Z, 51596
2023-04-30T08:34:00.093Z, 51240
2023-04-30T08:36:00.194Z, 51564
2023-04-30T08:38:00.029Z, 51648
2023-04-30T08:40:00.025Z, 50183
2023-04-30T08:42:00.077Z, 50058
2023-04-30T08:44:00.131Z, 51518
2023-04-30T08:46:00.193Z, 52065
2023-04-30T08:48:00.191Z, 54401
2023-04-30T08:50:00.165Z, 51288
2023-04-30T08:52:00.123Z, 51720
2023-04-30T08:54:00.136Z, 52186
2023-04-30T08:56:00.091Z, 51613
2023-04-30T08:58:00.128Z, 50293
2023-04-30T09:00:00.158Z, 51349
2023-04-30T09:02:00.220Z, 54612
2023-04-30T09:04:00.154Z, 48092
2023-04-30T09:06:00.207Z, 51894
2023-04-30T09:08:03.684Z, 54439
2023-04-30T09:10:00.122Z, 54370
2023-04-30T09:12:00.117Z, 54360
2023-04-30T09:14:00.102Z, 53890
2023-04-30T09:16:00.136Z, 53460
2023-04-30T09:18:00.147Z, 51359
2023-04-30T09:20:00.056Z, 51735
2023-04-30T09:22:00.078Z, 54612
2023-04-30T09:24:00.254Z, 54277
2023-04-30T09:26:00.034Z, 54612
2023-04-30T09:28:00.029Z, 54612
2023-04-30T09:30:00.045Z, 54612
2023-04-30T09:32:00.100Z, 54612
2023-04-30T09:34:00.032Z, 54612
2023-04-30T09:36:00.044Z, 54612
2023-04-30T09:38:00.028Z, 54612
2023-04-30T09:40:00.012Z, 54612
2023-04-30T09:42:00.122Z, 54612
2023-04-30T09:44:00.146Z, 54612
2023-04-30T09:46:00.389Z, 54612
2023-04-30T09:48:12.796Z, 54612
2023-04-30T09:50:00.261Z, 54612
2023-04-30T09:52:00.107Z, 54612
2023-04-30T09:54:00.145Z, 54612
2023-04-30T09:56:00.108Z, 54612
2023-04-30T09:58:00.110Z, 54612
2023-04-30T10:00:00.159Z, 54612
2023-04-30T10:02:00.115Z, 54612
2023-04-30T10:04:00.161Z, 54612
2023-04-30T10:06:00.239Z, 54612
2023-04-30T10:08:00.131Z, 54612
2023-04-30T10:10:00.124Z, 54612
2023-04-30T10:12:00.113Z, 54612
2023-04-30T10:14:00.058Z, 54612
2023-04-30T10:16:00.087Z, 54612
2023-04-30T10:18:00.154Z, 54612
2023-04-30T10:20:00.059Z, 54612
2023-04-30T10:22:00.045Z, 54612
2023-04-30T10:24:00.058Z, 54612
2023-04-30T10:26:00.153Z, 54612
2023-04-30T10:28:00.380Z, 54612
2023-04-30T10:30:00.063Z, 54612
2023-04-30T10:32:00.171Z, 54612
2023-04-30T10:34:00.048Z, 54612
2023-04-30T10:36:00.099Z, 54612
2023-04-30T10:38:00.101Z, 54612
2023-04-30T10:40:00.059Z, 54612
2023-04-30T10:42:00.075Z, 54612
2023-04-30T10:44:01.787Z, 54612
2023-04-30T10:46:00.299Z, 54612
2023-04-30T10:48:00.230Z, 54612
2023-04-30T10:50:00.132Z, 54612
2023-04-30T10:52:00.119Z, 54612
2023-04-30T10:54:00.129Z, 54612
2023-04-30T10:56:00.120Z, 54612
2023-04-30T10:58:00.121Z, 54612
2023-04-30T11:00:00.137Z, 54612
2023-04-30T11:02:00.179Z, 54612
2023-04-30T11:04:00.119Z, 54612
2023-04-30T11:06:00.150Z, 15552
2023-04-30T11:08:00.096Z, 54612
2023-04-30T11:10:00.146Z, 54612
2023-04-30T11:12:00.119Z, 54612
2023-04-30T11:14:00.124Z, 26083
2023-04-30T11:16:00.122Z, 44357
2023-04-30T11:18:00.097Z, 54612
2023-04-30T11:20:00.084Z, 48446
2023-04-30T11:22:00.071Z, 19912
2023-04-30T11:24:00.073Z, 30706
2023-04-30T11:26:00.048Z, 54612
2023-04-30T11:28:00.041Z, 54612
2023-04-30T11:30:00.095Z, 54612
2023-04-30T11:32:00.206Z, 54612
2023-04-30T11:34:00.067Z, 54612
2023-04-30T11:36:00.150Z, 54612
2023-04-30T11:38:00.040Z, 54612
2023-04-30T11:40:00.039Z, 54612
2023-04-30T11:42:00.069Z, 54612
2023-04-30T11:44:00.138Z, 54612
2023-04-30T11:46:00.122Z, 52418
2023-04-30T11:48:00.151Z, 54612
2023-04-30T11:50:00.127Z, 54612
2023-04-30T11:52:00.145Z, 54612
2023-04-30T11:54:00.157Z, 54612
2023-04-30T11:56:00.133Z, 54612
2023-04-30T11:58:00.181Z, 40454
2023-04-30T12:00:00.157Z, 17465
2023-04-30T12:02:00.141Z, 37286
2023-04-30T12:04:00.225Z, 21155
2023-04-30T12:06:00.216Z, 54612
2023-04-30T12:08:00.155Z, 54612
2023-04-30T12:10:00.201Z, 18803
2023-04-30T12:12:00.180Z, 54612
2023-04-30T12:14:00.074Z, 54612
2023-04-30T12:16:00.062Z, 20185
2023-04-30T12:18:00.143Z, 54612
2023-04-30T12:20:00.057Z, 54612
2023-04-30T12:22:00.082Z, 54612
2023-04-30T12:24:02.787Z, 54612
2023-04-30T12:26:00.041Z, 54612
2023-04-30T12:28:00.052Z, 54612
2023-04-30T12:30:00.063Z, 18356
2023-04-30T12:32:00.201Z, 18823
2023-04-30T12:34:00.065Z, 54612
2023-04-30T12:36:00.068Z, 54612
2023-04-30T12:38:00.035Z, 54612
2023-04-30T12:40:00.036Z, 16200
2023-04-30T12:42:00.077Z, 14912
2023-04-30T12:44:00.128Z, 14960
2023-04-30T12:46:00.136Z, 20478
2023-04-30T12:48:00.185Z, 30810
2023-04-30T12:50:00.129Z, 54612
2023-04-30T12:52:00.121Z, 54612
2023-04-30T12:54:00.135Z, 54612
2023-04-30T12:56:00.152Z, 54612
2023-04-30T12:58:00.159Z, 54612
2023-04-30T13:00:00.212Z, 54612
2023-04-30T13:02:00.188Z, 54612
2023-04-30T13:04:00.265Z, 54612
2023-04-30T13:06:00.211Z, 54612
2023-04-30T13:08:00.114Z, 54612
2023-04-30T13:10:00.182Z, 22006
2023-04-30T13:12:00.112Z, 53789
2023-04-30T13:14:00.098Z, 42568
2023-04-30T13:16:00.176Z, 54612
2023-04-30T13:18:00.211Z, 13113
2023-04-30T13:20:00.064Z, 10270
2023-04-30T13:22:00.063Z, 54612
2023-04-30T13:24:00.057Z, 54612
2023-04-30T13:26:00.070Z, 54612
2023-04-30T13:28:00.065Z, 29008
2023-04-30T13:30:00.063Z, 15912
2023-04-30T13:32:00.053Z, 17553
2023-04-30T13:34:00.051Z, 54612
2023-04-30T13:36:00.058Z, 16815
2023-04-30T13:38:00.044Z, 53361
2023-04-30T13:40:00.059Z, 51919
2023-04-30T13:42:00.143Z, 50775
2023-04-30T13:44:00.243Z, 26802
2023-04-30T13:46:00.095Z, 50606
2023-04-30T13:48:00.169Z, 48051
2023-04-30T13:50:00.143Z, 47329
2023-04-30T13:52:00.134Z, 46692
2023-04-30T13:54:00.128Z, 46750
2023-04-30T13:56:00.138Z, 46248
2023-04-30T13:58:00.142Z, 47290
2023-04-30T14:00:00.213Z, 54580
2023-04-30T14:02:00.124Z, 54612
2023-04-30T14:04:00.168Z, 54612
2023-04-30T14:06:00.126Z, 15553
2023-04-30T14:08:00.132Z, 14902
2023-04-30T14:10:00.110Z, 12828
2023-04-30T14:12:00.116Z, 50210
2023-04-30T14:14:00.218Z, 9028
2023-04-30T14:16:00.095Z, 43910
2023-04-30T14:18:00.159Z, 44795
2023-04-30T14:20:00.074Z, 45419
2023-04-30T14:22:00.076Z, 45348
2023-04-30T14:24:00.076Z, 28473
2023-04-30T14:26:00.056Z, 29570
2023-04-30T14:28:00.070Z, 42668
2023-04-30T14:30:00.100Z, 40575
2023-04-30T14:32:00.177Z, 46302
2023-04-30T14:34:00.057Z, 48115
2023-04-30T14:36:00.114Z, 27235
2023-04-30T14:38:00.054Z, 42217
2023-04-30T14:40:00.099Z, 49328
2023-04-30T14:42:00.138Z, 13440
2023-04-30T14:44:00.118Z, 49371
2023-04-30T14:46:00.149Z, 53751
2023-04-30T14:48:01.031Z, 50559
2023-04-30T14:50:00.121Z, 43715
2023-04-30T14:52:00.116Z, 43830
2023-04-30T14:54:00.128Z, 42280
2023-04-30T14:56:00.150Z, 13295
2023-04-30T14:58:00.124Z, 13210
2023-04-30T15:00:00.150Z, 25546
2023-04-30T15:02:00.152Z, 12946
2023-04-30T15:04:00.096Z, 21053
2023-04-30T15:06:00.151Z, 23789
2023-04-30T15:08:00.131Z, 24453
2023-04-30T15:10:00.209Z, 26035
2023-04-30T15:12:00.136Z, 18420
2023-04-30T15:14:00.067Z, 32295
2023-04-30T15:16:00.183Z, 22240
2023-04-30T15:18:00.097Z, 15052
2023-04-30T15:20:00.041Z, 18047
2023-04-30T15:22:00.052Z, 16610
2023-04-30T15:24:00.055Z, 12571
2023-04-30T15:26:00.022Z, 12547
2023-04-30T15:28:00.049Z, 15833
2023-04-30T15:30:00.326Z, 25278
2023-04-30T15:32:00.100Z, 11425
2023-04-30T15:34:00.042Z, 30167
2023-04-30T15:36:00.050Z, 16206
2023-04-30T15:38:00.057Z, 25714
2023-04-30T15:40:00.112Z, 28380
2023-04-30T15:42:00.081Z, 18421
2023-04-30T15:44:00.105Z, 21325
2023-04-30T15:46:00.074Z, 25169
2023-04-30T15:48:00.161Z, 24578
2023-04-30T15:50:00.130Z, 20779
2023-04-30T15:52:00.101Z, 13556
2023-04-30T15:54:00.132Z, 12327
2023-04-30T15:56:00.138Z, 15220
2023-04-30T15:58:00.165Z, 9531
2023-04-30T16:00:00.154Z, 8883
2023-04-30T16:02:00.171Z, 9188
2023-04-30T16:04:00.400Z, 9200
2023-04-30T16:06:00.239Z, 8411
2023-04-30T16:08:00.097Z, 13137
2023-04-30T16:10:00.172Z, 11725
2023-04-30T16:12:00.167Z, 17295
2023-04-30T16:14:00.064Z, 16870
2023-04-30T16:16:00.164Z, 19449
2023-04-30T16:18:00.208Z, 19923
2023-04-30T16:20:00.056Z, 20236
2023-04-30T16:22:00.079Z, 20295
2023-04-30T16:24:00.083Z, 18345
2023-04-30T16:26:00.051Z, 10250
2023-04-30T16:28:00.027Z, 11700
2023-04-30T16:30:00.122Z, 11844
2023-04-30T16:32:00.174Z, 13381
2023-04-30T16:34:00.082Z, 10529
2023-04-30T16:36:00.141Z, 9875
2023-04-30T16:38:00.067Z, 9376
2023-04-30T16:40:00.125Z, 9238
2023-04-30T16:42:00.078Z, 9345
2023-04-30T16:44:00.143Z, 9381
2023-04-30T16:46:00.195Z, 14188
2023-04-30T16:48:00.192Z, 10390
2023-04-30T16:50:00.142Z, 13046
2023-04-30T16:52:00.118Z, 11433
2023-04-30T16:54:00.130Z, 10140
2023-04-30T16:56:00.128Z, 8485
2023-04-30T16:58:00.163Z, 7935
2023-04-30T17:00:00.200Z, 9888
2023-04-30T17:02:00.106Z, 7214
2023-04-30T17:04:00.202Z, 7555
2023-04-30T17:06:00.175Z, 7895
2023-04-30T17:08:00.127Z, 11400
2023-04-30T17:10:00.220Z, 11308
2023-04-30T17:12:00.136Z, 10980
2023-04-30T17:14:00.059Z, 10664
2023-04-30T17:16:01.921Z, 10328
2023-04-30T17:18:00.109Z, 10180
2023-04-30T17:20:00.083Z, 9611
2023-04-30T17:22:00.066Z, 9167
2023-04-30T17:24:00.156Z, 8964
2023-04-30T17:26:00.037Z, 8468
2023-04-30T17:28:00.049Z, 7610
2023-04-30T17:30:00.167Z, 6881
2023-04-30T17:32:00.055Z, 6047
2023-04-30T17:34:00.065Z, 5665
2023-04-30T17:36:00.075Z, 5126
2023-04-30T17:38:00.073Z, 4754
2023-04-30T17:40:00.068Z, 4525
2023-04-30T17:42:00.110Z, 4443
2023-04-30T17:44:00.161Z, 4133
2023-04-30T17:46:00.123Z, 3685
2023-04-30T17:48:00.230Z, 3253
2023-04-30T17:50:00.156Z, 3002
2023-04-30T17:52:00.133Z, 2852
2023-04-30T17:54:00.165Z, 2737
2023-04-30T17:56:00.219Z, 2637
2023-04-30T17:58:00.140Z, 2538
2023-04-30T18:00:00.131Z, 2448
2023-04-30T18:02:00.191Z, 2328
2023-04-30T18:04:00.289Z, 2215
2023-04-30T18:06:00.189Z, 2118
2023-04-30T18:08:00.138Z, 2033
2023-04-30T18:10:00.390Z, 1939
2023-04-30T18:12:00.324Z, 1835
2023-04-30T18:14:00.087Z, 1708
2023-04-30T18:16:00.100Z, 1571
2023-04-30T18:18:00.135Z, 1434
2023-04-30T18:20:00.071Z, 1304
2023-04-30T18:22:00.065Z, 1180
2023-04-30T18:24:00.072Z, 1066
2023-04-30T18:26:00.049Z, 950
2023-04-30T18:28:00.037Z, 835
2023-04-30T18:30:00.077Z, 727
2023-04-30T18:32:00.090Z, 627
2023-04-30T18:34:00.059Z, 537
2023-04-30T18:36:00.067Z, 457
2023-04-30T18:38:00.051Z, 387
2023-04-30T18:40:00.064Z, 327
2023-04-30T18:42:00.112Z, 277
2023-04-30T18:44:00.098Z, 235
2023-04-30T18:46:00.103Z, 199
2023-04-30T18:48:00.169Z, 166
2023-04-30T18:50:00.103Z, 138
2023-04-30T18:52:00.144Z, 112
2023-04-30T18:54:00.101Z, 90
2023-04-30T18:56:00.107Z, 70
2023-04-30T18:58:00.102Z, 54
2023-04-30T19:00:00.153Z, 40
2023-04-30T19:02:00.273Z, 30
2023-04-30T19:04:00.139Z, 21
2023-04-30T19:06:00.216Z, 15
2023-04-30T19:08:00.088Z, 10
2023-04-30T19:10:00.163Z, 7
2023-04-30T19:12:00.181Z, 5
2023-04-30T19:14:00.090Z, 3
2023-04-30T19:16:00.086Z, 2
2023-04-30T19:18:00.186Z, 1
2023-04-30T19:20:00.075Z, 0
2023-04-30T19:22:00.063Z, 0
2023-04-30T19:24:00.068Z, 0
2023-04-30T19:26:00.072Z, 0
2023-04-30T19:28:00.047Z, 0
2023-04-30T19:30:00.097Z, 0
2023-04-30T19:32:00.206Z, 0
2023-04-30T19:34:00.109Z, 0
2023-04-30T19:36:00.065Z, 0
2023-04-30T19:38:00.045Z, 0
2023-04-30T19:40:00.050Z, 0
2023-04-30T19:42:00.123Z, 0
2023-04-30T19:44:00.145Z, 0
2023-04-30T19:46:00.146Z, 0
2023-04-30T19:48:00.198Z, 0
2023-04-30T19:50:00.149Z, 0
2023-04-30T19:52:00.120Z, 0
2023-04-30T19:54:00.170Z, 0
2023-04-30T19:56:00.102Z, 0
2023-04-30T19:58:00.111Z, 0
2023-04-30T20:00:00.138Z, 0
2023-04-30T20:02:00.198Z, 0
2023-04-30T20:04:00.330Z, 0
2023-04-30T20:06:00.185Z, 0
2023-04-30T20:08:00.143Z, 0
2023-04-30T20:10:00.165Z, 0
2023-04-30T20:12:00.134Z, 0
2023-04-30T20:14:00.088Z, 0
2023-04-30T20:16:00.127Z, 0
2023-04-30T20:18:00.077Z, 0
2023-04-30T20:20:00.064Z, 0
2023-04-30T20:22:00.062Z, 0
2023-04-30T20:24:00.067Z, 0
2023-04-30T20:26:00.022Z, 0
2023-04-30T20:28:00.023Z, 0
2023-04-30T20:30:00.047Z, 0
2023-04-30T20:32:00.137Z, 0
2023-04-30T20:34:00.050Z, 0
2023-04-30T20:36:00.104Z, 0
2023-04-30T20:38:00.050Z, 0
2023-04-30T20:40:00.067Z, 0
2023-04-30T20:42:00.080Z, 0
2023-04-30T20:44:00.100Z, 0
2023-04-30T20:46:00.119Z, 0
2023-04-30T20:48:00.334Z, 0
2023-04-30T20:50:00.123Z, 0
2023-04-30T20:52:00.172Z, 0
2023-04-30T20:54:00.146Z, 0
2023-04-30T20:56:00.162Z, 0
2023-04-30T20:58:00.110Z, 0
2023-04-30T21:00:00.174Z, 0
2023-04-30T21:02:00.174Z, 0
2023-04-30T21:04:00.143Z, 0
2023-04-30T21:06:00.205Z, 0
2023-04-30T21:08:00.126Z, 0
2023-04-30T21:10:00.172Z, 0
2023-04-30T21:12:00.155Z, 0
2023-04-30T21:14:00.084Z, 0
2023-04-30T21:16:00.101Z, 0
2023-04-30T21:18:00.096Z, 0
2023-04-30T21:20:00.054Z, 0
2023-04-30T21:22:00.053Z, 0
2023-04-30T21:24:00.047Z, 0
2023-04-30T21:26:00.036Z, 0
2023-04-30T21:28:00.037Z, 0
2023-04-30T21:30:00.062Z, 0
2023-04-30T21:32:00.065Z, 0
2023-04-30T21:34:00.054Z, 0
2023-04-30T21:36:00.060Z, 0
2023-04-30T21:38:00.063Z, 0
2023-04-30T21:40:00.097Z, 0
2023-04-30T21:42:00.102Z, 0
2023-04-30T21:44:00.124Z, 0
2023-04-30T21:46:00.149Z, 0
2023-04-30T21:48:00.357Z, 0
2023-04-30T21:50:00.112Z, 0
2023-04-30T21:52:00.088Z, 0
2023-04-30T21:54:00.136Z, 0
2023-04-30T21:56:00.154Z, 0
2023-04-30T21:58:00.127Z, 0
2023-04-30T22:00:00.125Z, 0
2023-04-30T22:02:03.041Z, 0
2023-04-30T22:04:00.213Z, 0
2023-04-30T22:06:00.184Z, 0
2023-04-30T22:08:00.176Z, 0
2023-04-30T22:10:00.149Z, 0
2023-04-30T22:12:00.132Z, 0
2023-04-30T22:14:00.084Z, 0
2023-04-30T22:16:00.116Z, 0
2023-04-30T22:18:00.209Z, 0
2023-04-30T22:20:00.044Z, 0
2023-04-30T22:22:00.047Z, 0
2023-04-30T22:24:00.046Z, 0
2023-04-30T22:26:00.036Z, 0
2023-04-30T22:28:00.025Z, 0
2023-04-30T22:30:00.058Z, 0
2023-04-30T22:32:00.074Z, 0
2023-04-30T22:34:00.031Z, 0
2023-04-30T22:36:00.048Z, 0
2023-04-30T22:38:00.023Z, 0
2023-04-30T22:40:00.069Z, 0
2023-04-30T22:42:00.088Z, 0
2023-04-30T22:44:00.110Z, 0
2023-04-30T22:46:00.110Z, 0
2023-04-30T22:48:01.768Z, 0
2023-04-30T22:50:00.164Z, 0
2023-04-30T22:52:00.114Z, 0
2023-04-30T22:54:00.141Z, 0
2023-04-30T22:56:00.140Z, 0
2023-04-30T22:58:00.089Z, 0
2023-04-30T23:00:00.139Z, 0
2023-04-30T23:02:00.103Z, 0
2023-04-30T23:04:00.142Z, 0
2023-04-30T23:06:00.182Z, 0
2023-04-30T23:08:00.099Z, 0
2023-04-30T23:10:00.149Z, 0
2023-04-30T23:12:00.114Z, 0
2023-04-30T23:14:00.101Z, 0
2023-04-30T23:16:00.082Z, 0
2023-04-30T23:18:00.113Z, 0
2023-04-30T23:20:00.072Z, 0
2023-04-30T23:22:00.058Z, 0
2023-04-30T23:24:00.057Z, 0
2023-04-30T23:26:00.040Z, 0
2023-04-30T23:28:00.040Z, 0
2023-04-30T23:30:00.054Z, 0
2023-04-30T23:32:00.071Z, 0
2023-04-30T23:34:00.040Z, 0
2023-04-30T23:36:00.039Z, 0
2023-04-30T23:38:00.035Z, 0
2023-04-30T23:40:00.056Z, 0
2023-04-30T23:42:00.110Z, 0
2023-04-30T23:44:00.130Z, 0
2023-04-30T23:46:00.231Z, 0
2023-04-30T23:48:00.188Z, 0
2023-04-30T23:50:00.145Z, 0
2023-04-30T23:52:00.148Z, 0
2023-04-30T23:54:00.122Z, 0
2023-04-30T23:56:00.138Z, 0
2023-04-30T23:58:00.149Z, 0
